Silver Fox — WDF8008 — position and weather

sailwx.info

Track history (hours):
 
Tides and Currents Weather Stations Pressure Air Temp Water Temp Dewpoint Dewpoint Depression Visibility Wind Speed Wind Dir Waves Ship Positions

Silver Fox

Owner: HR Marine Group LLC, katy, TX. More information available from US FCC via Universal Licensing System and Coast Guard Vessel Documentation Center.

Last reported at 2018-Jun-11 14:51 UTC. Time now 2018-Jun-19 08:14 UTC.
Position N 26°06' W 080°10'.

Length 35 m.

Type: Pleasure craft. MMSI: 367490420.

Date/timePositionNaut miles runAvg speedWind from/ knotsBaromVisibWave heightAir tempDewpointWater temp
2018-Jun-11 14:51N 26°06' W 080°10'0 0.0
2018-Jun-11 14:30N 26°06' W 080°10'0 0.0
2018-Jun-11 14:00N 26°06' W 080°10'1 1.8
2018-Jun-11 13:29N 26°07' W 080°09'1 1.7
2018-Jun-11 12:40N 26°07' W 080°08'1 3.9
2018-Jun-11 12:22N 26°07' W 080°07'3 5.7
2018-Jun-11 11:52N 26°09' W 080°06'5 0.2
2018-Jun-10 12:33N 26°14' W 080°06'0 0.0
2018-Jun-10 10:48N 26°14' W 080°06'  
2018-Jun-02 23:21N 26°10' W 080°06'2 6.0
2018-Jun-02 23:00N 26°08' W 080°07'2 4.0
2018-Jun-02 22:27N 26°06' W 080°07'4 7.7
2018-Jun-02 21:59N 26°02' W 080°06'611.3
2018-Jun-02 21:28N 25°57' W 080°06'511.2
2018-Jun-02 21:00N 25°52' W 080°06'510.1
2018-Jun-02 20:30N 25°46' W 080°08'5 9.8
2018-Jun-02 19:59N 25°42' W 080°08'3 5.7
2018-Jun-02 19:26N 25°39' W 080°10'3 5.8
2018-Jun-02 18:58N 25°42' W 080°12'4 7.6
2018-Jun-02 18:30N 25°45' W 080°11'2 4.0
2018-Jun-02 17:59N 25°46' W 080°09'1 1.1
2018-Jun-02 17:30N 25°46' W 080°08'2 4.4
2018-Jun-02 17:00N 25°48' W 080°07'5 9.6
2018-Jun-02 16:30N 25°53' W 080°06'510.3
2018-Jun-02 16:00N 25°58' W 080°06'510.6
2018-Jun-02 15:30N 26°03' W 080°06'4 7.4
2018-Jun-02 14:59N 26°07' W 080°07'2 4.1
2018-Jun-02 14:29N 26°09' W 080°06'3 5.5
2018-Jun-02 13:54N 26°12' W 080°06'  
Track history (hours):
 
Tides and Currents Weather Stations Pressure Air Temp Water Temp Dewpoint Dewpoint Depression Visibility Wind Speed Wind Dir Waves Ship Positions

Silver Fox

Owner: HR Marine Group LLC, katy, TX. More information available from US FCC via Universal Licensing System and Coast Guard Vessel Documentation Center.

Last reported at 2018-Jun-11 14:51 UTC. Time now 2018-Jun-19 08:14 UTC.
Position N 26°06' W 080°10'.

Length 35 m.

Type: Pleasure craft. MMSI: 367490420.

Date/timePositionNaut miles runAvg speedWind from/ knotsBaromVisibWave heightAir tempDewpointWater temp
2018-Jun-11 14:51N 26°06' W 080°10'0 0.0
2018-Jun-11 14:30N 26°06' W 080°10'0 0.0
2018-Jun-11 14:00N 26°06' W 080°10'1 1.8
2018-Jun-11 13:29N 26°07' W 080°09'1 1.7
2018-Jun-11 12:40N 26°07' W 080°08'1 3.9
2018-Jun-11 12:22N 26°07' W 080°07'3 5.7
2018-Jun-11 11:52N 26°09' W 080°06'5 0.2
2018-Jun-10 12:33N 26°14' W 080°06'0 0.0
2018-Jun-10 10:48N 26°14' W 080°06'  
2018-Jun-02 23:21N 26°10' W 080°06'2 6.0
2018-Jun-02 23:00N 26°08' W 080°07'2 4.0
2018-Jun-02 22:27N 26°06' W 080°07'4 7.7
2018-Jun-02 21:59N 26°02' W 080°06'611.3
2018-Jun-02 21:28N 25°57' W 080°06'511.2
2018-Jun-02 21:00N 25°52' W 080°06'510.1
2018-Jun-02 20:30N 25°46' W 080°08'5 9.8
2018-Jun-02 19:59N 25°42' W 080°08'3 5.7
2018-Jun-02 19:26N 25°39' W 080°10'3 5.8
2018-Jun-02 18:58N 25°42' W 080°12'4 7.6
2018-Jun-02 18:30N 25°45' W 080°11'2 4.0
2018-Jun-02 17:59N 25°46' W 080°09'1 1.1
2018-Jun-02 17:30N 25°46' W 080°08'2 4.4
2018-Jun-02 17:00N 25°48' W 080°07'5 9.6
2018-Jun-02 16:30N 25°53' W 080°06'510.3
2018-Jun-02 16:00N 25°58' W 080°06'510.6
2018-Jun-02 15:30N 26°03' W 080°06'4 7.4
2018-Jun-02 14:59N 26°07' W 080°07'2 4.1
2018-Jun-02 14:29N 26°09' W 080°06'3 5.5
2018-Jun-02 13:54N 26°12' W 080°06'  

Dump ship's entire track history